sensor_id;sensor_type;location;lat;lon;timestamp;pressure;altitude;pressure_sealevel;temperature;humidity
18607;BME280;9433;42.678;23.360;2022-09-09T00:00:53;95370.44;;;23.41;52.34
18607;BME280;9433;42.678;23.360;2022-09-09T00:03:25;95420.72;;;23.75;52.11
18607;BME280;9433;42.678;23.360;2022-09-09T00:05:59;95352.31;;;23.05;53.24
18607;BME280;9433;42.678;23.360;2022-09-09T00:08:37;95423.47;;;23.14;54.52
18607;BME280;9433;42.678;23.360;2022-09-09T00:11:12;95417.09;;;23.59;53.07
18607;BME280;9433;42.678;23.360;2022-09-09T00:13:46;95371.16;;;23.26;53.36
18607;BME280;9433;42.678;23.360;2022-09-09T00:16:16;95419.00;;;23.71;52.67
18607;BME280;9433;42.678;23.360;2022-09-09T00:18:53;95396.81;;;23.28;54.13
18607;BME280;9433;42.678;23.360;2022-09-09T00:21:26;95410.09;;;23.58;53.40
18607;BME280;9433;42.678;23.360;2022-09-09T00:23:57;95377.31;;;23.51;53.14
18607;BME280;9433;42.678;23.360;2022-09-09T00:26:32;95393.56;;;23.63;53.29
18607;BME280;9433;42.678;23.360;2022-09-09T00:29:09;95394.47;;;23.79;52.86
18607;BME280;9433;42.678;23.360;2022-09-09T00:31:41;95331.94;;;23.23;53.92
18607;BME280;9433;42.678;23.360;2022-09-09T00:34:12;95392.22;;;23.69;53.42
18607;BME280;9433;42.678;23.360;2022-09-09T00:36:41;95342.78;;;23.23;53.96
18607;BME280;9433;42.678;23.360;2022-09-09T00:39:14;95374.81;;;23.70;53.52
18607;BME280;9433;42.678;23.360;2022-09-09T00:41:55;95352.44;;;23.61;53.81
18607;BME280;9433;42.678;23.360;2022-09-09T00:44:31;95332.91;;;23.43;53.75
18607;BME280;9433;42.678;23.360;2022-09-09T00:47:07;95362.19;;;23.37;54.47
18607;BME280;9433;42.678;23.360;2022-09-09T00:49:46;95369.69;;;23.28;55.36
18607;BME280;9433;42.678;23.360;2022-09-09T00:52:25;95351.94;;;23.31;55.31
18607;BME280;9433;42.678;23.360;2022-09-09T00:55:00;95318.50;;;23.27;54.37
18607;BME280;9433;42.678;23.360;2022-09-09T00:57:31;95349.72;;;23.61;53.73
18607;BME280;9433;42.678;23.360;2022-09-09T01:00:15;95346.78;;;23.54;53.90
18607;BME280;9433;42.678;23.360;2022-09-09T01:02:50;95330.09;;;23.39;53.86
18607;BME280;9433;42.678;23.360;2022-09-09T01:05:24;95374.25;;;23.64;54.50
18607;BME280;9433;42.678;23.360;2022-09-09T01:07:55;95361.50;;;23.53;54.30
18607;BME280;9433;42.678;23.360;2022-09-09T01:10:30;95375.88;;;23.41;55.53
18607;BME280;9433;42.678;23.360;2022-09-09T01:13:11;95367.16;;;23.48;55.24
18607;BME280;9433;42.678;23.360;2022-09-09T01:15:41;95379.03;;;23.43;55.17
18607;BME280;9433;42.678;23.360;2022-09-09T01:18:13;95379.13;;;23.47;55.03
18607;BME280;9433;42.678;23.360;2022-09-09T01:20:49;95338.53;;;23.10;54.79
18607;BME280;9433;42.678;23.360;2022-09-09T01:23:45;95357.16;;;22.87;56.45
18607;BME280;9433;42.678;23.360;2022-09-09T01:26:24;95385.97;;;22.91;56.83
18607;BME280;9433;42.678;23.360;2022-09-09T01:28:52;95342.00;;;22.73;56.31
18607;BME280;9433;42.678;23.360;2022-09-09T01:31:23;95366.31;;;23.19;55.71
18607;BME280;9433;42.678;23.360;2022-09-09T01:33:53;95314.59;;;22.75;55.56
18607;BME280;9433;42.678;23.360;2022-09-09T01:36:26;95375.47;;;23.02;56.11
18607;BME280;9433;42.678;23.360;2022-09-09T01:38:54;95393.16;;;22.75;56.82
18607;BME280;9433;42.678;23.360;2022-09-09T01:41:22;95360.19;;;22.61;56.78
18607;BME280;9433;42.678;23.360;2022-09-09T01:43:49;95388.56;;;23.00;56.79
18607;BME280;9433;42.678;23.360;2022-09-09T01:46:18;95372.63;;;22.86;56.29
18607;BME280;9433;42.678;23.360;2022-09-09T01:48:48;95371.94;;;22.89;56.72
18607;BME280;9433;42.678;23.360;2022-09-09T01:51:16;95388.22;;;23.14;55.73
18607;BME280;9433;42.678;23.360;2022-09-09T01:53:43;95333.31;;;22.56;56.54
18607;BME280;9433;42.678;23.360;2022-09-09T01:56:20;95397.09;;;22.53;58.00
18607;BME280;9433;42.678;23.360;2022-09-09T01:58:59;95398.56;;;22.63;57.55
18607;BME280;9433;42.678;23.360;2022-09-09T02:01:35;95388.50;;;22.51;57.76
18607;BME280;9433;42.678;23.360;2022-09-09T02:04:15;95398.66;;;22.54;58.36
18607;BME280;9433;42.678;23.360;2022-09-09T02:06:45;95380.72;;;22.74;57.25
18607;BME280;9433;42.678;23.360;2022-09-09T02:09:17;95390.66;;;22.70;56.85
18607;BME280;9433;42.678;23.360;2022-09-09T02:11:49;95390.13;;;22.77;56.92
18607;BME280;9433;42.678;23.360;2022-09-09T02:14:25;95391.47;;;22.70;57.83
18607;BME280;9433;42.678;23.360;2022-09-09T02:16:58;95375.78;;;22.76;57.46
18607;BME280;9433;42.678;23.360;2022-09-09T02:19:32;95366.25;;;22.58;57.61
18607;BME280;9433;42.678;23.360;2022-09-09T02:22:00;95362.19;;;22.51;58.19
18607;BME280;9433;42.678;23.360;2022-09-09T02:24:30;95366.63;;;22.56;56.84
18607;BME280;9433;42.678;23.360;2022-09-09T02:26:58;95317.69;;;22.16;58.55
18607;BME280;9433;42.678;23.360;2022-09-09T02:29:31;95365.47;;;22.57;58.25
18607;BME280;9433;42.678;23.360;2022-09-09T02:32:03;95372.47;;;22.58;58.24
18607;BME280;9433;42.678;23.360;2022-09-09T02:34:35;95352.72;;;22.58;57.87
18607;BME280;9433;42.678;23.360;2022-09-09T02:37:03;95376.09;;;22.62;57.51
18607;BME280;9433;42.678;23.360;2022-09-09T02:39:30;95351.69;;;22.38;57.55
18607;BME280;9433;42.678;23.360;2022-09-09T02:41:57;95377.72;;;22.30;58.07
18607;BME280;9433;42.678;23.360;2022-09-09T02:44:24;95392.56;;;22.57;58.19
18607;BME280;9433;42.678;23.360;2022-09-09T02:47:09;95364.66;;;22.32;57.42
18607;BME280;9433;42.678;23.360;2022-09-09T02:49:45;95399.63;;;21.62;60.67
18607;BME280;9433;42.678;23.360;2022-09-09T02:52:18;95394.00;;;22.09;60.08
18607;BME280;9433;42.678;23.360;2022-09-09T02:54:49;95333.06;;;21.49;59.73
18607;BME280;9433;42.678;23.360;2022-09-09T02:57:27;95382.00;;;22.19;58.67
18607;BME280;9433;42.678;23.360;2022-09-09T02:59:57;95394.94;;;22.46;58.28
18607;BME280;9433;42.678;23.360;2022-09-09T03:02:25;95378.72;;;21.92;59.16
18607;BME280;9433;42.678;23.360;2022-09-09T03:04:52;95391.41;;;22.34;58.45
18607;BME280;9433;42.678;23.360;2022-09-09T03:07:19;95367.13;;;21.71;59.72
18607;BME280;9433;42.678;23.360;2022-09-09T03:09:47;95340.75;;;21.47;60.09
18607;BME280;9433;42.678;23.360;2022-09-09T03:12:14;95368.22;;;21.91;58.90
18607;BME280;9433;42.678;23.360;2022-09-09T03:14:41;95378.22;;;22.11;58.04
18607;BME280;9433;42.678;23.360;2022-09-09T03:17:09;95392.53;;;21.57;60.66
18607;BME280;9433;42.678;23.360;2022-09-09T03:19:37;95398.97;;;21.65;60.47
18607;BME280;9433;42.678;23.360;2022-09-09T03:22:04;95344.75;;;21.62;59.20
18607;BME280;9433;42.678;23.360;2022-09-09T03:24:31;95383.19;;;21.88;58.87
18607;BME280;9433;42.678;23.360;2022-09-09T03:26:58;95383.72;;;22.02;58.69
18607;BME280;9433;42.678;23.360;2022-09-09T03:29:25;95336.28;;;21.84;58.22
18607;BME280;9433;42.678;23.360;2022-09-09T03:31:51;95403.47;;;21.82;59.66
18607;BME280;9433;42.678;23.360;2022-09-09T03:34:18;95407.44;;;21.34;61.42
18607;BME280;9433;42.678;23.360;2022-09-09T03:36:46;95390.69;;;21.20;62.07
18607;BME280;9433;42.678;23.360;2022-09-09T03:39:14;95406.03;;;21.57;61.40
18607;BME280;9433;42.678;23.360;2022-09-09T03:41:41;95407.22;;;21.90;60.00
18607;BME280;9433;42.678;23.360;2022-09-09T03:44:11;95368.56;;;21.89;59.45
18607;BME280;9433;42.678;23.360;2022-09-09T03:46:38;95337.81;;;21.73;58.82
18607;BME280;9433;42.678;23.360;2022-09-09T03:49:05;95393.63;;;22.19;58.56
18607;BME280;9433;42.678;23.360;2022-09-09T03:51:31;95407.72;;;22.04;59.28
18607;BME280;9433;42.678;23.360;2022-09-09T03:54:06;95405.31;;;21.90;59.32
18607;BME280;9433;42.678;23.360;2022-09-09T03:56:35;95406.53;;;22.14;59.44
18607;BME280;9433;42.678;23.360;2022-09-09T03:59:02;95389.41;;;21.68;59.66
18607;BME280;9433;42.678;23.360;2022-09-09T04:01:29;95372.88;;;21.69;59.92
18607;BME280;9433;42.678;23.360;2022-09-09T04:03:56;95416.06;;;21.78;60.02
18607;BME280;9433;42.678;23.360;2022-09-09T04:06:24;95403.59;;;21.65;60.44
18607;BME280;9433;42.678;23.360;2022-09-09T04:08:51;95360.31;;;21.65;59.54
18607;BME280;9433;42.678;23.360;2022-09-09T04:11:20;95376.75;;;21.80;59.37
18607;BME280;9433;42.678;23.360;2022-09-09T04:13:47;95414.75;;;21.84;59.84
18607;BME280;9433;42.678;23.360;2022-09-09T04:16:15;95391.13;;;21.93;59.74
18607;BME280;9433;42.678;23.360;2022-09-09T04:18:42;95373.38;;;21.84;59.53
18607;BME280;9433;42.678;23.360;2022-09-09T04:21:09;95408.88;;;22.03;59.39
18607;BME280;9433;42.678;23.360;2022-09-09T04:23:38;95382.75;;;21.86;60.11
18607;BME280;9433;42.678;23.360;2022-09-09T04:26:05;95407.03;;;22.28;59.39
18607;BME280;9433;42.678;23.360;2022-09-09T04:28:35;95362.84;;;22.03;58.77
18607;BME280;9433;42.678;23.360;2022-09-09T04:31:06;95400.47;;;22.17;58.93
18607;BME280;9433;42.678;23.360;2022-09-09T04:33:33;95404.75;;;22.18;58.04
18607;BME280;9433;42.678;23.360;2022-09-09T04:36:00;95396.91;;;22.04;57.27
18607;BME280;9433;42.678;23.360;2022-09-09T04:38:27;95382.41;;;21.88;56.63
18607;BME280;9433;42.678;23.360;2022-09-09T04:40:54;95414.06;;;22.29;55.98
18607;BME280;9433;42.678;23.360;2022-09-09T04:43:21;95425.81;;;22.12;56.63
18607;BME280;9433;42.678;23.360;2022-09-09T04:45:52;95343.44;;;21.68;56.60
18607;BME280;9433;42.678;23.360;2022-09-09T04:48:20;95406.34;;;21.98;54.75
18607;BME280;9433;42.678;23.360;2022-09-09T04:50:54;95408.88;;;22.03;54.89
18607;BME280;9433;42.678;23.360;2022-09-09T04:53:21;95397.28;;;22.15;54.68
18607;BME280;9433;42.678;23.360;2022-09-09T04:55:48;95397.69;;;22.25;54.51
18607;BME280;9433;42.678;23.360;2022-09-09T04:58:15;95342.59;;;21.88;54.29
18607;BME280;9433;42.678;23.360;2022-09-09T05:00:42;95377.03;;;22.21;54.15
18607;BME280;9433;42.678;23.360;2022-09-09T05:03:10;95395.41;;;22.48;53.91
18607;BME280;9433;42.678;23.360;2022-09-09T05:05:38;95373.22;;;22.34;54.48
18607;BME280;9433;42.678;23.360;2022-09-09T05:08:06;95397.63;;;22.46;54.80
18607;BME280;9433;42.678;23.360;2022-09-09T05:10:36;95377.78;;;22.55;54.63
18607;BME280;9433;42.678;23.360;2022-09-09T05:13:03;95339.63;;;22.35;54.25
18607;BME280;9433;42.678;23.360;2022-09-09T05:15:33;95323.47;;;21.93;55.64
18607;BME280;9433;42.678;23.360;2022-09-09T05:18:01;95391.63;;;22.08;56.48
18607;BME280;9433;42.678;23.360;2022-09-09T05:20:32;95331.59;;;22.26;55.10
18607;BME280;9433;42.678;23.360;2022-09-09T05:22:59;95351.97;;;21.91;56.48
18607;BME280;9433;42.678;23.360;2022-09-09T05:25:25;95377.31;;;22.40;56.71
18607;BME280;9433;42.678;23.360;2022-09-09T05:27:52;95371.47;;;22.63;55.60
18607;BME280;9433;42.678;23.360;2022-09-09T05:30:20;95369.44;;;22.84;55.58
18607;BME280;9433;42.678;23.360;2022-09-09T05:32:47;95369.13;;;23.10;54.57
18607;BME280;9433;42.678;23.360;2022-09-09T05:35:14;95372.16;;;23.21;55.09
18607;BME280;9433;42.678;23.360;2022-09-09T05:37:43;95338.41;;;23.06;54.14
18607;BME280;9433;42.678;23.360;2022-09-09T05:40:11;95373.56;;;23.15;53.70
18607;BME280;9433;42.678;23.360;2022-09-09T05:42:38;95371.97;;;23.02;53.13
18607;BME280;9433;42.678;23.360;2022-09-09T05:45:06;95344.97;;;23.05;52.19
18607;BME280;9433;42.678;23.360;2022-09-09T05:47:34;95337.38;;;23.11;52.97
18607;BME280;9433;42.678;23.360;2022-09-09T05:50:00;95384.56;;;23.47;53.33
18607;BME280;9433;42.678;23.360;2022-09-09T05:52:27;95390.13;;;22.89;53.76
18607;BME280;9433;42.678;23.360;2022-09-09T05:54:55;95331.06;;;23.07;52.36
18607;BME280;9433;42.678;23.360;2022-09-09T05:57:22;95396.72;;;23.77;51.45
18607;BME280;9433;42.678;23.360;2022-09-09T05:59:49;95375.16;;;23.68;50.99
18607;BME280;9433;42.678;23.360;2022-09-09T06:02:16;95367.88;;;23.32;51.63
18607;BME280;9433;42.678;23.360;2022-09-09T06:04:43;95355.88;;;23.45;51.43
18607;BME280;9433;42.678;23.360;2022-09-09T06:07:10;95346.59;;;23.47;50.45
18607;BME280;9433;42.678;23.360;2022-09-09T06:09:36;95406.25;;;23.71;50.31
18607;BME280;9433;42.678;23.360;2022-09-09T06:12:08;95384.25;;;23.24;50.05
18607;BME280;9433;42.678;23.360;2022-09-09T06:14:35;95392.97;;;23.17;49.56
18607;BME280;9433;42.678;23.360;2022-09-09T06:17:02;95403.22;;;23.48;50.06
18607;BME280;9433;42.678;23.360;2022-09-09T06:19:29;95342.13;;;22.77;49.88
18607;BME280;9433;42.678;23.360;2022-09-09T06:21:56;95398.81;;;23.43;49.83
18607;BME280;9433;42.678;23.360;2022-09-09T06:24:22;95352.25;;;23.41;49.65
18607;BME280;9433;42.678;23.360;2022-09-09T06:26:49;95406.88;;;23.92;48.08
18607;BME280;9433;42.678;23.360;2022-09-09T06:29:17;95405.88;;;24.13;48.64
18607;BME280;9433;42.678;23.360;2022-09-09T06:31:44;95401.44;;;24.49;47.87
18607;BME280;9433;42.678;23.360;2022-09-09T06:34:12;95406.28;;;24.87;47.14
18607;BME280;9433;42.678;23.360;2022-09-09T06:36:40;95379.59;;;24.45;46.57
18607;BME280;9433;42.678;23.360;2022-09-09T06:39:07;95395.50;;;24.31;47.36
18607;BME280;9433;42.678;23.360;2022-09-09T06:41:36;95389.78;;;24.80;46.09
18607;BME280;9433;42.678;23.360;2022-09-09T06:44:04;95399.00;;;25.07;45.73
18607;BME280;9433;42.678;23.360;2022-09-09T06:46:34;95370.28;;;25.09;45.40
18607;BME280;9433;42.678;23.360;2022-09-09T06:49:01;95342.53;;;24.69;44.85
18607;BME280;9433;42.678;23.360;2022-09-09T06:51:29;95389.63;;;25.20;44.86
18607;BME280;9433;42.678;23.360;2022-09-09T06:53:58;95370.75;;;24.96;44.27
18607;BME280;9433;42.678;23.360;2022-09-09T06:56:26;95394.53;;;24.99;44.37
18607;BME280;9433;42.678;23.360;2022-09-09T06:58:55;95357.84;;;24.93;43.48
18607;BME280;9433;42.678;23.360;2022-09-09T07:01:25;95405.75;;;25.64;43.80
18607;BME280;9433;42.678;23.360;2022-09-09T07:03:54;95404.00;;;25.37;43.75
18607;BME280;9433;42.678;23.360;2022-09-09T07:06:25;95410.38;;;25.99;42.41
18607;BME280;9433;42.678;23.360;2022-09-09T07:08:57;95411.69;;;26.05;41.45
18607;BME280;9433;42.678;23.360;2022-09-09T07:11:26;95411.41;;;26.10;41.44
18607;BME280;9433;42.678;23.360;2022-09-09T07:13:54;95407.25;;;26.36;41.63
18607;BME280;9433;42.678;23.360;2022-09-09T07:16:23;95401.56;;;26.25;41.58
18607;BME280;9433;42.678;23.360;2022-09-09T07:18:55;95351.59;;;25.40;41.92
18607;BME280;9433;42.678;23.360;2022-09-09T07:21:23;95387.16;;;25.86;40.94
18607;BME280;9433;42.678;23.360;2022-09-09T07:23:51;95395.19;;;26.17;41.24
18607;BME280;9433;42.678;23.360;2022-09-09T07:26:22;95379.03;;;26.28;41.44
18607;BME280;9433;42.678;23.360;2022-09-09T07:28:49;95397.59;;;25.99;41.57
18607;BME280;9433;42.678;23.360;2022-09-09T07:31:17;95393.44;;;25.86;41.42
18607;BME280;9433;42.678;23.360;2022-09-09T07:33:46;95372.31;;;25.28;41.10
18607;BME280;9433;42.678;23.360;2022-09-09T07:36:17;95372.50;;;25.90;40.83
18607;BME280;9433;42.678;23.360;2022-09-09T07:38:50;95346.09;;;26.14;41.26
18607;BME280;9433;42.678;23.360;2022-09-09T07:41:19;95376.25;;;26.90;40.57
18607;BME280;9433;42.678;23.360;2022-09-09T07:43:47;95388.19;;;26.82;40.22
18607;BME280;9433;42.678;23.360;2022-09-09T07:46:16;95365.91;;;26.76;40.12
18607;BME280;9433;42.678;23.360;2022-09-09T07:48:45;95397.31;;;26.89;40.54
18607;BME280;9433;42.678;23.360;2022-09-09T07:51:14;95398.09;;;26.67;39.90
18607;BME280;9433;42.678;23.360;2022-09-09T07:53:44;95386.34;;;26.43;40.34
18607;BME280;9433;42.678;23.360;2022-09-09T07:56:13;95382.75;;;26.82;39.85
18607;BME280;9433;42.678;23.360;2022-09-09T07:58:40;95364.03;;;27.30;39.62
18607;BME280;9433;42.678;23.360;2022-09-09T08:01:09;95388.53;;;27.79;38.88
18607;BME280;9433;42.678;23.360;2022-09-09T08:03:37;95370.78;;;27.66;38.39
18607;BME280;9433;42.678;23.360;2022-09-09T08:06:05;95386.44;;;28.33;37.54
18607;BME280;9433;42.678;23.360;2022-09-09T08:08:34;95387.72;;;28.09;37.40
18607;BME280;9433;42.678;23.360;2022-09-09T08:11:04;95392.53;;;27.59;37.89
18607;BME280;9433;42.678;23.360;2022-09-09T08:13:34;95386.78;;;27.98;37.44
18607;BME280;9433;42.678;23.360;2022-09-09T08:16:06;95384.03;;;28.28;37.19
18607;BME280;9433;42.678;23.360;2022-09-09T08:18:33;95373.50;;;28.30;38.20
18607;BME280;9433;42.678;23.360;2022-09-09T08:21:08;95368.09;;;28.37;37.54
18607;BME280;9433;42.678;23.360;2022-09-09T08:23:37;95382.47;;;28.64;37.77
18607;BME280;9433;42.678;23.360;2022-09-09T08:26:10;95386.78;;;28.65;36.41
18607;BME280;9433;42.678;23.360;2022-09-09T08:28:38;95376.13;;;28.97;37.57
18607;BME280;9433;42.678;23.360;2022-09-09T08:31:07;95391.00;;;28.22;36.87
18607;BME280;9433;42.678;23.360;2022-09-09T08:33:34;95362.66;;;28.37;36.53
18607;BME280;9433;42.678;23.360;2022-09-09T08:36:02;95381.13;;;28.88;36.13
18607;BME280;9433;42.678;23.360;2022-09-09T08:38:29;95383.13;;;28.17;36.86
18607;BME280;9433;42.678;23.360;2022-09-09T08:43:46;95369.09;;;28.52;38.67
18607;BME280;9433;42.678;23.360;2022-09-09T08:46:21;95356.03;;;27.74;39.07
18607;BME280;9433;42.678;23.360;2022-09-09T08:48:56;95375.81;;;27.94;38.61
18607;BME280;9433;42.678;23.360;2022-09-09T08:51:26;95370.75;;;28.26;37.13
18607;BME280;9433;42.678;23.360;2022-09-09T08:53:56;95356.94;;;28.49;38.18
18607;BME280;9433;42.678;23.360;2022-09-09T08:56:26;95362.81;;;28.18;37.87
18607;BME280;9433;42.678;23.360;2022-09-09T08:58:56;95356.53;;;28.47;36.69
18607;BME280;9433;42.678;23.360;2022-09-09T09:01:41;95354.50;;;28.41;37.14
18607;BME280;9433;42.678;23.360;2022-09-09T09:04:21;95373.69;;;28.85;37.88
18607;BME280;9433;42.678;23.360;2022-09-09T09:06:56;95365.00;;;28.76;37.08
18607;BME280;9433;42.678;23.360;2022-09-09T09:09:34;95358.03;;;28.41;38.33
18607;BME280;9433;42.678;23.360;2022-09-09T09:12:15;95360.03;;;28.89;37.21
18607;BME280;9433;42.678;23.360;2022-09-09T09:14:44;95353.06;;;28.54;37.91
18607;BME280;9433;42.678;23.360;2022-09-09T09:17:14;95369.78;;;28.42;37.52
18607;BME280;9433;42.678;23.360;2022-09-09T09:19:42;95367.56;;;28.54;37.13
18607;BME280;9433;42.678;23.360;2022-09-09T09:22:15;95367.63;;;27.64;38.78
18607;BME280;9433;42.678;23.360;2022-09-09T09:24:50;95362.50;;;28.23;38.09
18607;BME280;9433;42.678;23.360;2022-09-09T09:27:22;95351.31;;;28.76;36.92
18607;BME280;9433;42.678;23.360;2022-09-09T09:29:56;95316.28;;;28.92;36.59
18607;BME280;9433;42.678;23.360;2022-09-09T09:32:30;95371.97;;;29.11;35.69
18607;BME280;9433;42.678;23.360;2022-09-09T09:35:01;95364.69;;;29.36;36.85
18607;BME280;9433;42.678;23.360;2022-09-09T09:37:32;95369.22;;;29.11;37.47
18607;BME280;9433;42.678;23.360;2022-09-09T09:40:08;95367.25;;;29.08;36.58
18607;BME280;9433;42.678;23.360;2022-09-09T09:42:36;95339.91;;;29.11;36.05
18607;BME280;9433;42.678;23.360;2022-09-09T09:45:17;95353.63;;;29.15;36.54
18607;BME280;9433;42.678;23.360;2022-09-09T09:47:58;95329.97;;;29.47;35.86
18607;BME280;9433;42.678;23.360;2022-09-09T09:50:25;95336.19;;;29.41;37.17
18607;BME280;9433;42.678;23.360;2022-09-09T09:52:56;95342.59;;;29.66;37.38
18607;BME280;9433;42.678;23.360;2022-09-09T09:55:24;95322.31;;;29.12;36.12
18607;BME280;9433;42.678;23.360;2022-09-09T09:57:53;95336.22;;;29.52;35.42
18607;BME280;9433;42.678;23.360;2022-09-09T10:00:22;95326.97;;;29.67;36.45
18607;BME280;9433;42.678;23.360;2022-09-09T10:02:50;95310.16;;;28.58;36.84
18607;BME280;9433;42.678;23.360;2022-09-09T10:05:19;95295.66;;;28.54;36.84
18607;BME280;9433;42.678;23.360;2022-09-09T10:07:47;95328.72;;;28.83;37.09
18607;BME280;9433;42.678;23.360;2022-09-09T10:10:35;95299.59;;;28.56;36.79
18607;BME280;9433;42.678;23.360;2022-09-09T10:13:08;95302.09;;;28.35;38.06
18607;BME280;9433;42.678;23.360;2022-09-09T10:15:47;95324.75;;;28.76;37.34
18607;BME280;9433;42.678;23.360;2022-09-09T10:18:40;95334.97;;;28.83;37.60
18607;BME280;9433;42.678;23.360;2022-09-09T10:21:20;95346.44;;;29.58;36.40
18607;BME280;9433;42.678;23.360;2022-09-09T10:24:01;95324.38;;;28.78;37.14
18607;BME280;9433;42.678;23.360;2022-09-09T10:26:38;95348.63;;;29.31;36.10
18607;BME280;9433;42.678;23.360;2022-09-09T10:29:26;95342.47;;;29.48;37.03
18607;BME280;9433;42.678;23.360;2022-09-09T10:32:06;95320.97;;;29.50;36.31
18607;BME280;9433;42.678;23.360;2022-09-09T10:34:51;95332.72;;;29.51;37.38
18607;BME280;9433;42.678;23.360;2022-09-09T10:37:36;95346.94;;;29.71;36.38
18607;BME280;9433;42.678;23.360;2022-09-09T10:40:26;95353.03;;;29.54;37.89
18607;BME280;9433;42.678;23.360;2022-09-09T10:43:00;95357.88;;;29.67;37.57
18607;BME280;9433;42.678;23.360;2022-09-09T10:45:37;95345.63;;;29.54;37.35
18607;BME280;9433;42.678;23.360;2022-09-09T10:48:24;95358.53;;;29.54;37.18
18607;BME280;9433;42.678;23.360;2022-09-09T10:51:02;95345.66;;;29.58;38.74
18607;BME280;9433;42.678;23.360;2022-09-09T10:53:37;95365.53;;;28.92;38.08
18607;BME280;9433;42.678;23.360;2022-09-09T10:56:09;95360.72;;;28.78;37.94
18607;BME280;9433;42.678;23.360;2022-09-09T10:58:44;95336.78;;;29.13;38.66
18607;BME280;9433;42.678;23.360;2022-09-09T11:01:20;95323.81;;;29.02;38.92
18607;BME280;9433;42.678;23.360;2022-09-09T11:03:54;95323.53;;;29.22;38.42
18607;BME280;9433;42.678;23.360;2022-09-09T11:06:28;95322.69;;;29.11;38.96
18607;BME280;9433;42.678;23.360;2022-09-09T11:08:57;95351.06;;;29.47;38.15
18607;BME280;9433;42.678;23.360;2022-09-09T11:11:30;95346.91;;;29.09;39.07
18607;BME280;9433;42.678;23.360;2022-09-09T11:14:02;95310.47;;;28.97;38.59
18607;BME280;9433;42.678;23.360;2022-09-09T11:16:36;95358.91;;;29.52;38.74
18607;BME280;9433;42.678;23.360;2022-09-09T11:19:14;95345.22;;;29.48;37.87
18607;BME280;9433;42.678;23.360;2022-09-09T11:21:46;95345.19;;;29.45;38.15
18607;BME280;9433;42.678;23.360;2022-09-09T11:24:16;95347.28;;;29.66;38.96
18607;BME280;9433;42.678;23.360;2022-09-09T11:26:47;95307.22;;;29.43;39.43
18607;BME280;9433;42.678;23.360;2022-09-09T11:29:37;95342.28;;;29.82;38.85
18607;BME280;9433;42.678;23.360;2022-09-09T11:32:27;95328.50;;;29.64;38.46
18607;BME280;9433;42.678;23.360;2022-09-09T11:35:02;95287.69;;;29.41;38.86
18607;BME280;9433;42.678;23.360;2022-09-09T11:37:53;95275.00;;;29.12;38.50
18607;BME280;9433;42.678;23.360;2022-09-09T11:40:24;95309.75;;;29.73;37.74
18607;BME280;9433;42.678;23.360;2022-09-09T11:43:02;95305.00;;;29.63;39.09
18607;BME280;9433;42.678;23.360;2022-09-09T11:45:32;95250.91;;;29.46;38.58
18607;BME280;9433;42.678;23.360;2022-09-09T11:48:00;95297.22;;;29.76;39.17
18607;BME280;9433;42.678;23.360;2022-09-09T11:50:31;95298.84;;;29.88;38.96
18607;BME280;9433;42.678;23.360;2022-09-09T11:53:18;95260.31;;;29.48;38.25
18607;BME280;9433;42.678;23.360;2022-09-09T11:56:09;95206.34;;;29.53;37.84
18607;BME280;9433;42.678;23.360;2022-09-09T11:58:43;95263.59;;;29.86;39.16
18607;BME280;9433;42.678;23.360;2022-09-09T12:01:36;95237.66;;;29.52;39.55
18607;BME280;9433;42.678;23.360;2022-09-09T12:04:30;95273.44;;;30.16;39.32
18607;BME280;9433;42.678;23.360;2022-09-09T12:07:25;95273.06;;;30.14;38.09
18607;BME280;9433;42.678;23.360;2022-09-09T12:10:04;95217.91;;;30.37;37.34
18607;BME280;9433;42.678;23.360;2022-09-09T12:12:38;95274.69;;;30.69;37.47
18607;BME280;9433;42.678;23.360;2022-09-09T12:15:23;95182.22;;;30.30;36.70
18607;BME280;9433;42.678;23.360;2022-09-09T12:18:01;95249.56;;;31.17;36.33
18607;BME280;9433;42.678;23.360;2022-09-09T12:20:44;95195.53;;;30.63;36.94
18607;BME280;9433;42.678;23.360;2022-09-09T12:23:30;95230.81;;;30.58;36.64
18607;BME280;9433;42.678;23.360;2022-09-09T12:29:16;95257.38;;;31.25;35.85
18607;BME280;9433;42.678;23.360;2022-09-09T12:31:53;95254.19;;;31.48;35.15
18607;BME280;9433;42.678;23.360;2022-09-09T12:34:34;95221.25;;;31.41;36.56
18607;BME280;9433;42.678;23.360;2022-09-09T12:37:05;95211.63;;;31.81;35.21
18607;BME280;9433;42.678;23.360;2022-09-09T12:39:40;95230.47;;;32.49;34.45
18607;BME280;9433;42.678;23.360;2022-09-09T12:42:16;95206.38;;;32.12;35.03
18607;BME280;9433;42.678;23.360;2022-09-09T12:44:51;95226.25;;;32.31;34.04
18607;BME280;9433;42.678;23.360;2022-09-09T12:47:20;95177.06;;;30.93;35.46
18607;BME280;9433;42.678;23.360;2022-09-09T12:49:49;95223.59;;;31.50;35.67
18607;BME280;9433;42.678;23.360;2022-09-09T12:52:20;95212.41;;;30.40;37.63
18607;BME280;9433;42.678;23.360;2022-09-09T12:54:51;95223.75;;;30.71;36.84
18607;BME280;9433;42.678;23.360;2022-09-09T12:57:20;95222.50;;;31.11;36.32
18607;BME280;9433;42.678;23.360;2022-09-09T12:59:50;95204.84;;;31.23;36.58
18607;BME280;9433;42.678;23.360;2022-09-09T13:02:22;95174.97;;;31.40;36.52
18607;BME280;9433;42.678;23.360;2022-09-09T13:04:49;95171.69;;;31.66;35.99
18607;BME280;9433;42.678;23.360;2022-09-09T13:07:17;95195.06;;;31.99;35.35
18607;BME280;9433;42.678;23.360;2022-09-09T13:09:46;95187.41;;;31.66;35.47
18607;BME280;9433;42.678;23.360;2022-09-09T13:12:18;95193.31;;;31.57;36.06
18607;BME280;9433;42.678;23.360;2022-09-09T13:14:48;95205.53;;;31.52;36.81
18607;BME280;9433;42.678;23.360;2022-09-09T13:17:20;95166.44;;;31.16;37.29
18607;BME280;9433;42.678;23.360;2022-09-09T13:19:48;95179.47;;;31.75;36.06
18607;BME280;9433;42.678;23.360;2022-09-09T13:22:21;95193.06;;;31.33;36.25
18607;BME280;9433;42.678;23.360;2022-09-09T13:24:59;95199.06;;;31.88;36.21
18607;BME280;9433;42.678;23.360;2022-09-09T13:27:31;95170.91;;;31.66;36.38
18607;BME280;9433;42.678;23.360;2022-09-09T13:29:59;95174.28;;;31.95;35.76